sensor_id;sensor_type;location;lat;lon;timestamp;P1;durP1;ratioP1;P2;durP2;ratioP2
23565;SDS011;22140;48.988;8.544;2023-05-15T00:04:52;9.77;;;3.92;;
23565;SDS011;22140;48.988;8.544;2023-05-15T00:09:53;9.00;;;3.55;;
23565;SDS011;22140;48.988;8.544;2023-05-15T00:14:55;10.00;;;4.40;;
23565;SDS011;22140;48.988;8.544;2023-05-15T00:19:56;8.35;;;3.83;;
23565;SDS011;22140;48.988;8.544;2023-05-15T00:24:59;8.10;;;3.77;;
23565;SDS011;22140;48.988;8.544;2023-05-15T00:30:00;9.05;;;3.70;;
23565;SDS011;22140;48.988;8.544;2023-05-15T00:35:02;7.72;;;3.28;;
23565;SDS011;22140;48.988;8.544;2023-05-15T00:40:03;8.43;;;3.30;;
23565;SDS011;22140;48.988;8.544;2023-05-15T00:45:05;8.85;;;3.22;;
23565;SDS011;22140;48.988;8.544;2023-05-15T00:50:10;7.17;;;3.27;;
23565;SDS011;22140;48.988;8.544;2023-05-15T00:55:11;10.95;;;4.28;;
23565;SDS011;22140;48.988;8.544;2023-05-15T01:00:12;10.55;;;4.10;;
23565;SDS011;22140;48.988;8.544;2023-05-15T01:05:16;10.80;;;3.97;;
23565;SDS011;22140;48.988;8.544;2023-05-15T01:10:18;10.07;;;4.10;;
23565;SDS011;22140;48.988;8.544;2023-05-15T01:15:19;8.00;;;4.00;;
23565;SDS011;22140;48.988;8.544;2023-05-15T01:20:21;9.07;;;3.60;;
23565;SDS011;22140;48.988;8.544;2023-05-15T01:30:31;8.63;;;3.40;;
23565;SDS011;22140;48.988;8.544;2023-05-15T01:40:39;10.67;;;4.20;;
23565;SDS011;22140;48.988;8.544;2023-05-15T01:45:41;9.05;;;3.90;;
23565;SDS011;22140;48.988;8.544;2023-05-15T01:50:43;9.48;;;3.97;;
23565;SDS011;22140;48.988;8.544;2023-05-15T01:55:45;9.20;;;3.73;;
23565;SDS011;22140;48.988;8.544;2023-05-15T02:00:48;8.77;;;3.58;;
23565;SDS011;22140;48.988;8.544;2023-05-15T02:05:50;8.20;;;3.67;;
23565;SDS011;22140;48.988;8.544;2023-05-15T02:10:57;11.27;;;3.88;;
23565;SDS011;22140;48.988;8.544;2023-05-15T02:15:58;8.07;;;3.53;;
23565;SDS011;22140;48.988;8.544;2023-05-15T02:21:00;7.90;;;3.10;;
23565;SDS011;22140;48.988;8.544;2023-05-15T02:36:31;7.90;;;3.30;;
23565;SDS011;22140;48.988;8.544;2023-05-15T02:41:33;8.35;;;3.90;;
23565;SDS011;22140;48.988;8.544;2023-05-15T02:46:36;7.80;;;3.53;;
23565;SDS011;22140;48.988;8.544;2023-05-15T02:51:39;10.38;;;3.40;;
23565;SDS011;22140;48.988;8.544;2023-05-15T02:56:40;10.90;;;3.87;;
23565;SDS011;22140;48.988;8.544;2023-05-15T03:01:41;10.73;;;3.67;;
23565;SDS011;22140;48.988;8.544;2023-05-15T03:06:43;8.35;;;3.50;;
23565;SDS011;22140;48.988;8.544;2023-05-15T03:11:44;9.20;;;3.73;;
23565;SDS011;22140;48.988;8.544;2023-05-15T03:16:46;9.02;;;3.83;;
23565;SDS011;22140;48.988;8.544;2023-05-15T03:21:47;8.43;;;3.73;;
23565;SDS011;22140;48.988;8.544;2023-05-15T03:26:48;9.50;;;3.90;;
23565;SDS011;22140;48.988;8.544;2023-05-15T03:31:49;10.57;;;4.38;;
23565;SDS011;22140;48.988;8.544;2023-05-15T03:36:51;8.20;;;3.97;;
23565;SDS011;22140;48.988;8.544;2023-05-15T03:41:52;8.40;;;3.88;;
23565;SDS011;22140;48.988;8.544;2023-05-15T03:46:53;8.13;;;3.47;;
23565;SDS011;22140;48.988;8.544;2023-05-15T03:51:55;10.40;;;3.65;;
23565;SDS011;22140;48.988;8.544;2023-05-15T03:56:56;9.45;;;3.80;;
23565;SDS011;22140;48.988;8.544;2023-05-15T04:01:58;10.90;;;3.80;;
23565;SDS011;22140;48.988;8.544;2023-05-15T04:07:05;8.23;;;3.67;;
23565;SDS011;22140;48.988;8.544;2023-05-15T04:12:07;8.93;;;3.53;;
23565;SDS011;22140;48.988;8.544;2023-05-15T04:17:08;9.15;;;3.80;;
23565;SDS011;22140;48.988;8.544;2023-05-15T04:22:10;10.32;;;3.85;;
23565;SDS011;22140;48.988;8.544;2023-05-15T04:27:11;8.73;;;3.70;;
23565;SDS011;22140;48.988;8.544;2023-05-15T04:32:13;13.85;;;4.10;;
23565;SDS011;22140;48.988;8.544;2023-05-15T04:37:14;11.07;;;4.23;;
23565;SDS011;22140;48.988;8.544;2023-05-15T04:42:15;14.82;;;3.60;;
23565;SDS011;22140;48.988;8.544;2023-05-15T04:47:17;10.52;;;3.85;;
23565;SDS011;22140;48.988;8.544;2023-05-15T04:52:18;7.57;;;3.60;;
23565;SDS011;22140;48.988;8.544;2023-05-15T04:57:20;12.20;;;4.03;;
23565;SDS011;22140;48.988;8.544;2023-05-15T05:02:21;9.90;;;4.07;;
23565;SDS011;22140;48.988;8.544;2023-05-15T05:07:23;8.27;;;3.80;;
23565;SDS011;22140;48.988;8.544;2023-05-15T05:12:24;9.63;;;3.60;;
23565;SDS011;22140;48.988;8.544;2023-05-15T05:17:28;8.43;;;3.73;;
23565;SDS011;22140;48.988;8.544;2023-05-15T05:22:29;7.15;;;3.20;;
23565;SDS011;22140;48.988;8.544;2023-05-15T05:27:31;11.10;;;4.00;;
23565;SDS011;22140;48.988;8.544;2023-05-15T05:32:32;14.93;;;3.87;;
23565;SDS011;22140;48.988;8.544;2023-05-15T05:37:33;20.48;;;4.40;;
23565;SDS011;22140;48.988;8.544;2023-05-15T05:42:35;12.67;;;4.00;;
23565;SDS011;22140;48.988;8.544;2023-05-15T05:47:36;42.70;;;5.90;;
23565;SDS011;22140;48.988;8.544;2023-05-15T05:52:37;13.02;;;3.47;;
23565;SDS011;22140;48.988;8.544;2023-05-15T05:57:39;9.90;;;3.17;;
23565;SDS011;22140;48.988;8.544;2023-05-15T06:02:40;8.27;;;3.47;;
23565;SDS011;22140;48.988;8.544;2023-05-15T06:07:42;50.90;;;5.68;;
23565;SDS011;22140;48.988;8.544;2023-05-15T06:12:43;10.73;;;3.20;;
23565;SDS011;22140;48.988;8.544;2023-05-15T06:17:45;22.83;;;3.70;;
23565;SDS011;22140;48.988;8.544;2023-05-15T06:22:46;22.83;;;3.35;;
23565;SDS011;22140;48.988;8.544;2023-05-15T06:27:47;9.17;;;2.97;;
23565;SDS011;22140;48.988;8.544;2023-05-15T06:32:49;32.87;;;5.00;;
23565;SDS011;22140;48.988;8.544;2023-05-15T06:37:50;18.30;;;3.70;;
23565;SDS011;22140;48.988;8.544;2023-05-15T06:42:53;20.38;;;3.92;;
23565;SDS011;22140;48.988;8.544;2023-05-15T06:47:54;7.80;;;3.00;;
23565;SDS011;22140;48.988;8.544;2023-05-15T06:52:55;19.33;;;3.90;;
23565;SDS011;22140;48.988;8.544;2023-05-15T06:57:57;8.43;;;3.30;;
23565;SDS011;22140;48.988;8.544;2023-05-15T07:02:58;17.37;;;3.60;;
23565;SDS011;22140;48.988;8.544;2023-05-15T07:07:59;10.25;;;3.28;;
23565;SDS011;22140;48.988;8.544;2023-05-15T07:13:01;23.60;;;4.57;;
23565;SDS011;22140;48.988;8.544;2023-05-15T07:18:02;8.00;;;3.10;;
23565;SDS011;22140;48.988;8.544;2023-05-15T07:23:04;7.67;;;3.23;;
23565;SDS011;22140;48.988;8.544;2023-05-15T07:28:05;114.10;;;8.25;;
23565;SDS011;22140;48.988;8.544;2023-05-15T07:33:06;9.23;;;3.63;;
23565;SDS011;22140;48.988;8.544;2023-05-15T07:38:08;7.60;;;2.93;;
23565;SDS011;22140;48.988;8.544;2023-05-15T07:43:09;7.82;;;3.28;;
23565;SDS011;22140;48.988;8.544;2023-05-15T07:48:17;12.05;;;3.42;;
23565;SDS011;22140;48.988;8.544;2023-05-15T07:53:18;38.03;;;5.10;;
23565;SDS011;22140;48.988;8.544;2023-05-15T07:58:20;23.17;;;4.13;;
23565;SDS011;22140;48.988;8.544;2023-05-15T08:03:21;7.50;;;3.10;;
23565;SDS011;22140;48.988;8.544;2023-05-15T08:08:23;7.53;;;2.80;;
23565;SDS011;22140;48.988;8.544;2023-05-15T08:13:24;15.10;;;3.80;;
23565;SDS011;22140;48.988;8.544;2023-05-15T08:18:26;9.57;;;2.90;;
23565;SDS011;22140;48.988;8.544;2023-05-15T08:23:27;7.32;;;2.80;;
23565;SDS011;22140;48.988;8.544;2023-05-15T08:28:28;13.77;;;3.73;;
23565;SDS011;22140;48.988;8.544;2023-05-15T08:33:30;10.25;;;3.63;;
23565;SDS011;22140;48.988;8.544;2023-05-15T08:38:31;14.75;;;3.97;;
23565;SDS011;22140;48.988;8.544;2023-05-15T08:43:33;6.83;;;3.00;;
23565;SDS011;22140;48.988;8.544;2023-05-15T08:48:36;10.85;;;3.10;;
23565;SDS011;22140;48.988;8.544;2023-05-15T08:53:39;13.77;;;2.80;;
23565;SDS011;22140;48.988;8.544;2023-05-15T08:58:41;10.47;;;3.00;;
23565;SDS011;22140;48.988;8.544;2023-05-15T09:03:42;12.10;;;2.67;;
23565;SDS011;22140;48.988;8.544;2023-05-15T09:08:44;7.40;;;2.88;;
23565;SDS011;22140;48.988;8.544;2023-05-15T09:13:46;6.32;;;2.53;;
23565;SDS011;22140;48.988;8.544;2023-05-15T09:18:47;5.70;;;2.53;;
23565;SDS011;22140;48.988;8.544;2023-05-15T09:23:49;20.08;;;3.22;;
23565;SDS011;22140;48.988;8.544;2023-05-15T09:28:51;7.28;;;2.42;;
23565;SDS011;22140;48.988;8.544;2023-05-15T09:34:01;25.87;;;3.57;;
23565;SDS011;22140;48.988;8.544;2023-05-15T09:39:04;17.17;;;2.88;;
23565;SDS011;22140;48.988;8.544;2023-05-15T09:44:16;6.65;;;2.20;;
23565;SDS011;22140;48.988;8.544;2023-05-15T09:49:21;13.80;;;2.80;;
23565;SDS011;22140;48.988;8.544;2023-05-15T09:54:23;12.23;;;2.60;;
23565;SDS011;22140;48.988;8.544;2023-05-15T09:59:25;11.93;;;2.38;;
23565;SDS011;22140;48.988;8.544;2023-05-15T10:04:26;9.32;;;2.80;;
23565;SDS011;22140;48.988;8.544;2023-05-15T10:09:33;9.90;;;2.90;;
23565;SDS011;22140;48.988;8.544;2023-05-15T10:14:35;16.48;;;2.83;;
23565;SDS011;22140;48.988;8.544;2023-05-15T10:19:36;7.35;;;2.75;;
23565;SDS011;22140;48.988;8.544;2023-05-15T10:25:01;7.07;;;2.50;;
23565;SDS011;22140;48.988;8.544;2023-05-15T10:30:03;6.47;;;2.50;;
23565;SDS011;22140;48.988;8.544;2023-05-15T10:35:05;7.05;;;2.20;;
23565;SDS011;22140;48.988;8.544;2023-05-15T10:40:09;7.90;;;2.90;;
23565;SDS011;22140;48.988;8.544;2023-05-15T10:45:11;6.00;;;2.67;;
23565;SDS011;22140;48.988;8.544;2023-05-15T10:50:13;10.95;;;2.80;;
23565;SDS011;22140;48.988;8.544;2023-05-15T10:55:15;12.00;;;3.10;;
23565;SDS011;22140;48.988;8.544;2023-05-15T11:05:18;9.05;;;2.50;;
23565;SDS011;22140;48.988;8.544;2023-05-15T11:15:30;10.07;;;2.87;;
23565;SDS011;22140;48.988;8.544;2023-05-15T11:20:41;17.95;;;2.90;;
23565;SDS011;22140;48.988;8.544;2023-05-15T11:26:02;10.32;;;2.90;;
23565;SDS011;22140;48.988;8.544;2023-05-15T11:31:05;6.77;;;2.40;;
23565;SDS011;22140;48.988;8.544;2023-05-15T11:36:07;12.00;;;2.77;;
23565;SDS011;22140;48.988;8.544;2023-05-15T11:41:15;9.60;;;2.10;;
23565;SDS011;22140;48.988;8.544;2023-05-15T11:46:18;13.98;;;2.13;;
23565;SDS011;22140;48.988;8.544;2023-05-15T11:51:21;10.33;;;1.67;;
23565;SDS011;22140;48.988;8.544;2023-05-15T11:56:24;5.68;;;1.80;;
23565;SDS011;22140;48.988;8.544;2023-05-15T12:01:25;14.85;;;2.30;;
23565;SDS011;22140;48.988;8.544;2023-05-15T12:06:27;23.90;;;3.00;;
23565;SDS011;22140;48.988;8.544;2023-05-15T12:11:28;21.30;;;2.60;;
23565;SDS011;22140;48.988;8.544;2023-05-15T12:16:29;17.98;;;2.50;;
23565;SDS011;22140;48.988;8.544;2023-05-15T12:21:31;6.77;;;2.20;;
23565;SDS011;22140;48.988;8.544;2023-05-15T12:26:32;6.00;;;2.43;;
23565;SDS011;22140;48.988;8.544;2023-05-15T12:31:34;6.53;;;2.20;;
23565;SDS011;22140;48.988;8.544;2023-05-15T12:36:35;7.00;;;2.20;;
23565;SDS011;22140;48.988;8.544;2023-05-15T12:41:37;6.53;;;2.33;;
23565;SDS011;22140;48.988;8.544;2023-05-15T12:46:39;6.47;;;2.33;;
23565;SDS011;22140;48.988;8.544;2023-05-15T12:51:41;4.70;;;1.73;;
23565;SDS011;22140;48.988;8.544;2023-05-15T12:56:42;5.40;;;2.13;;
23565;SDS011;22140;48.988;8.544;2023-05-15T13:01:44;6.30;;;2.03;;
23565;SDS011;22140;48.988;8.544;2023-05-15T13:06:46;5.35;;;2.00;;
23565;SDS011;22140;48.988;8.544;2023-05-15T13:11:48;9.93;;;3.07;;
23565;SDS011;22140;48.988;8.544;2023-05-15T13:16:49;8.43;;;2.40;;
23565;SDS011;22140;48.988;8.544;2023-05-15T13:21:51;26.77;;;2.67;;
23565;SDS011;22140;48.988;8.544;2023-05-15T13:26:52;30.65;;;3.85;;
23565;SDS011;22140;48.988;8.544;2023-05-15T13:31:53;14.93;;;2.50;;
23565;SDS011;22140;48.988;8.544;2023-05-15T13:36:57;11.52;;;2.53;;
23565;SDS011;22140;48.988;8.544;2023-05-15T13:41:59;41.05;;;5.15;;
23565;SDS011;22140;48.988;8.544;2023-05-15T13:47:00;130.23;;;11.40;;
23565;SDS011;22140;48.988;8.544;2023-05-15T13:52:04;42.60;;;5.00;;
23565;SDS011;22140;48.988;8.544;2023-05-15T13:57:06;14.30;;;3.03;;
23565;SDS011;22140;48.988;8.544;2023-05-15T14:02:07;7.97;;;2.80;;
23565;SDS011;22140;48.988;8.544;2023-05-15T14:07:08;88.03;;;6.97;;
23565;SDS011;22140;48.988;8.544;2023-05-15T14:12:09;55.00;;;2.95;;
23565;SDS011;22140;48.988;8.544;2023-05-15T14:17:11;7.22;;;2.00;;
23565;SDS011;22140;48.988;8.544;2023-05-15T14:22:13;76.03;;;6.70;;
23565;SDS011;22140;48.988;8.544;2023-05-15T14:27:14;18.13;;;3.35;;
23565;SDS011;22140;48.988;8.544;2023-05-15T14:32:16;77.18;;;7.03;;
23565;SDS011;22140;48.988;8.544;2023-05-15T14:37:17;10.50;;;2.60;;
23565;SDS011;22140;48.988;8.544;2023-05-15T14:42:20;11.07;;;2.65;;
23565;SDS011;22140;48.988;8.544;2023-05-15T14:47:21;9.48;;;2.67;;
23565;SDS011;22140;48.988;8.544;2023-05-15T14:52:22;6.90;;;2.53;;
23565;SDS011;22140;48.988;8.544;2023-05-15T14:57:24;12.90;;;2.80;;
23565;SDS011;22140;48.988;8.544;2023-05-15T15:02:26;20.02;;;2.95;;
23565;SDS011;22140;48.988;8.544;2023-05-15T15:07:28;20.83;;;3.00;;
23565;SDS011;22140;48.988;8.544;2023-05-15T15:12:30;14.73;;;2.73;;
23565;SDS011;22140;48.988;8.544;2023-05-15T15:17:31;12.55;;;3.05;;
23565;SDS011;22140;48.988;8.544;2023-05-15T15:22:33;11.07;;;3.13;;
23565;SDS011;22140;48.988;8.544;2023-05-15T15:27:34;6.97;;;2.77;;
23565;SDS011;22140;48.988;8.544;2023-05-15T15:32:37;6.10;;;2.60;;
23565;SDS011;22140;48.988;8.544;2023-05-15T15:37:39;16.20;;;3.20;;
23565;SDS011;22140;48.988;8.544;2023-05-15T15:42:40;8.07;;;2.70;;
23565;SDS011;22140;48.988;8.544;2023-05-15T15:47:41;18.63;;;3.47;;
23565;SDS011;22140;48.988;8.544;2023-05-15T15:52:43;19.80;;;3.17;;
23565;SDS011;22140;48.988;8.544;2023-05-15T15:57:44;7.22;;;2.42;;
23565;SDS011;22140;48.988;8.544;2023-05-15T16:02:46;7.70;;;2.40;;
23565;SDS011;22140;48.988;8.544;2023-05-15T16:07:47;10.82;;;2.53;;
23565;SDS011;22140;48.988;8.544;2023-05-15T16:12:49;8.98;;;2.63;;
23565;SDS011;22140;48.988;8.544;2023-05-15T16:17:51;7.27;;;2.67;;
23565;SDS011;22140;48.988;8.544;2023-05-15T16:22:54;6.55;;;2.40;;
23565;SDS011;22140;48.988;8.544;2023-05-15T16:27:55;9.55;;;2.50;;
23565;SDS011;22140;48.988;8.544;2023-05-15T16:32:57;6.67;;;2.63;;
23565;SDS011;22140;48.988;8.544;2023-05-15T16:37:58;6.70;;;2.67;;
23565;SDS011;22140;48.988;8.544;2023-05-15T16:43:00;17.17;;;3.10;;
23565;SDS011;22140;48.988;8.544;2023-05-15T16:48:01;10.75;;;3.20;;
23565;SDS011;22140;48.988;8.544;2023-05-15T16:53:03;6.40;;;2.90;;
23565;SDS011;22140;48.988;8.544;2023-05-15T16:58:04;7.30;;;2.88;;
23565;SDS011;22140;48.988;8.544;2023-05-15T17:03:06;7.63;;;2.30;;
23565;SDS011;22140;48.988;8.544;2023-05-15T17:08:07;7.63;;;2.90;;
23565;SDS011;22140;48.988;8.544;2023-05-15T17:13:09;6.25;;;2.72;;
23565;SDS011;22140;48.988;8.544;2023-05-15T17:18:10;8.38;;;2.78;;
23565;SDS011;22140;48.988;8.544;2023-05-15T17:23:12;9.97;;;3.00;;
23565;SDS011;22140;48.988;8.544;2023-05-15T17:28:13;8.53;;;3.20;;
23565;SDS011;22140;48.988;8.544;2023-05-15T17:33:14;8.57;;;3.10;;
23565;SDS011;22140;48.988;8.544;2023-05-15T17:38:16;8.63;;;3.70;;
23565;SDS011;22140;48.988;8.544;2023-05-15T17:43:17;12.17;;;3.67;;
23565;SDS011;22140;48.988;8.544;2023-05-15T17:48:18;8.63;;;3.50;;
23565;SDS011;22140;48.988;8.544;2023-05-15T17:53:20;6.38;;;3.00;;
23565;SDS011;22140;48.988;8.544;2023-05-15T17:58:24;8.27;;;2.90;;
23565;SDS011;22140;48.988;8.544;2023-05-15T18:03:25;7.60;;;3.40;;
23565;SDS011;22140;48.988;8.544;2023-05-15T18:08:27;8.25;;;3.88;;
23565;SDS011;22140;48.988;8.544;2023-05-15T18:13:28;7.87;;;3.60;;
23565;SDS011;22140;48.988;8.544;2023-05-15T18:18:29;8.25;;;4.28;;
23565;SDS011;22140;48.988;8.544;2023-05-15T18:23:31;15.75;;;6.88;;
23565;SDS011;22140;48.988;8.544;2023-05-15T18:28:32;8.63;;;4.37;;
23565;SDS011;22140;48.988;8.544;2023-05-15T18:33:34;8.00;;;3.88;;
23565;SDS011;22140;48.988;8.544;2023-05-15T18:38:35;8.70;;;4.57;;
23565;SDS011;22140;48.988;8.544;2023-05-15T18:43:37;9.57;;;4.33;;
23565;SDS011;22140;48.988;8.544;2023-05-15T18:48:38;13.25;;;4.53;;
23565;SDS011;22140;48.988;8.544;2023-05-15T18:53:39;10.65;;;4.75;;
23565;SDS011;22140;48.988;8.544;2023-05-15T18:58:41;9.17;;;4.23;;
23565;SDS011;22140;48.988;8.544;2023-05-15T19:03:42;9.70;;;4.77;;
23565;SDS011;22140;48.988;8.544;2023-05-15T19:08:44;9.57;;;5.32;;
23565;SDS011;22140;48.988;8.544;2023-05-15T19:13:46;10.30;;;5.00;;
23565;SDS011;22140;48.988;8.544;2023-05-15T19:18:47;11.30;;;5.30;;
23565;SDS011;22140;48.988;8.544;2023-05-15T19:23:48;10.07;;;5.10;;
23565;SDS011;22140;48.988;8.544;2023-05-15T19:28:50;10.00;;;4.90;;
23565;SDS011;22140;48.988;8.544;2023-05-15T19:33:53;11.30;;;5.33;;
23565;SDS011;22140;48.988;8.544;2023-05-15T19:38:54;10.15;;;5.68;;
23565;SDS011;22140;48.988;8.544;2023-05-15T19:43:56;10.17;;;5.40;;
23565;SDS011;22140;48.988;8.544;2023-05-15T19:48:57;11.13;;;5.67;;
23565;SDS011;22140;48.988;8.544;2023-05-15T19:53:58;10.02;;;5.45;;
23565;SDS011;22140;48.988;8.544;2023-05-15T19:59:02;10.43;;;4.93;;
23565;SDS011;22140;48.988;8.544;2023-05-15T20:04:03;13.30;;;5.20;;
23565;SDS011;22140;48.988;8.544;2023-05-15T20:09:05;10.57;;;4.80;;
23565;SDS011;22140;48.988;8.544;2023-05-15T20:14:06;10.23;;;5.27;;
23565;SDS011;22140;48.988;8.544;2023-05-15T20:19:07;10.30;;;5.20;;
23565;SDS011;22140;48.988;8.544;2023-05-15T20:24:11;9.98;;;5.30;;
23565;SDS011;22140;48.988;8.544;2023-05-15T20:29:12;10.33;;;4.90;;
23565;SDS011;22140;48.988;8.544;2023-05-15T20:34:14;9.83;;;4.70;;
23565;SDS011;22140;48.988;8.544;2023-05-15T20:39:16;9.55;;;5.10;;
23565;SDS011;22140;48.988;8.544;2023-05-15T20:44:17;11.90;;;5.50;;
23565;SDS011;22140;48.988;8.544;2023-05-15T20:49:19;11.57;;;4.90;;
23565;SDS011;22140;48.988;8.544;2023-05-15T20:54:20;11.63;;;5.35;;
23565;SDS011;22140;48.988;8.544;2023-05-15T20:59:21;9.93;;;5.13;;
23565;SDS011;22140;48.988;8.544;2023-05-15T21:04:23;11.20;;;5.27;;
23565;SDS011;22140;48.988;8.544;2023-05-15T21:09:24;8.68;;;4.85;;
23565;SDS011;22140;48.988;8.544;2023-05-15T21:14:25;9.43;;;5.05;;
23565;SDS011;22140;48.988;8.544;2023-05-15T21:19:27;10.33;;;4.83;;
23565;SDS011;22140;48.988;8.544;2023-05-15T21:24:28;13.13;;;5.60;;
23565;SDS011;22140;48.988;8.544;2023-05-15T21:29:29;11.90;;;5.32;;
23565;SDS011;22140;48.988;8.544;2023-05-15T21:34:31;14.20;;;5.70;;
23565;SDS011;22140;48.988;8.544;2023-05-15T21:39:32;13.27;;;5.57;;
23565;SDS011;22140;48.988;8.544;2023-05-15T21:44:33;10.77;;;5.45;;
23565;SDS011;22140;48.988;8.544;2023-05-15T21:49:35;10.23;;;5.67;;
23565;SDS011;22140;48.988;8.544;2023-05-15T21:54:36;10.63;;;5.68;;
23565;SDS011;22140;48.988;8.544;2023-05-15T21:59:38;10.97;;;5.77;;
23565;SDS011;22140;48.988;8.544;2023-05-15T22:04:39;11.97;;;5.40;;
23565;SDS011;22140;48.988;8.544;2023-05-15T22:09:41;11.23;;;5.60;;
23565;SDS011;22140;48.988;8.544;2023-05-15T22:14:43;12.00;;;6.00;;
23565;SDS011;22140;48.988;8.544;2023-05-15T22:19:58;12.30;;;6.13;;
23565;SDS011;22140;48.988;8.544;2023-05-15T22:25:08;12.90;;;5.80;;
23565;SDS011;22140;48.988;8.544;2023-05-15T22:30:09;11.57;;;5.90;;
23565;SDS011;22140;48.988;8.544;2023-05-15T22:35:11;11.70;;;5.57;;
23565;SDS011;22140;48.988;8.544;2023-05-15T22:40:13;12.85;;;6.28;;
23565;SDS011;22140;48.988;8.544;2023-05-15T22:45:14;11.17;;;5.63;;
23565;SDS011;22140;48.988;8.544;2023-05-15T22:50:18;12.02;;;6.10;;
23565;SDS011;22140;48.988;8.544;2023-05-15T22:55:19;11.27;;;5.88;;
23565;SDS011;22140;48.988;8.544;2023-05-15T23:00:21;11.20;;;6.00;;
23565;SDS011;22140;48.988;8.544;2023-05-15T23:05:22;11.60;;;5.78;;
23565;SDS011;22140;48.988;8.544;2023-05-15T23:10:24;12.30;;;6.38;;
23565;SDS011;22140;48.988;8.544;2023-05-15T23:15:26;11.87;;;6.30;;
23565;SDS011;22140;48.988;8.544;2023-05-15T23:20:28;11.23;;;6.40;;
23565;SDS011;22140;48.988;8.544;2023-05-15T23:25:30;13.20;;;7.07;;
23565;SDS011;22140;48.988;8.544;2023-05-15T23:30:31;13.70;;;7.43;;
23565;SDS011;22140;48.988;8.544;2023-05-15T23:35:33;14.43;;;8.05;;
23565;SDS011;22140;48.988;8.544;2023-05-15T23:40:34;14.73;;;8.07;;
23565;SDS011;22140;48.988;8.544;2023-05-15T23:45:35;21.63;;;10.03;;
23565;SDS011;22140;48.988;8.544;2023-05-15T23:50:37;18.75;;;10.13;;
23565;SDS011;22140;48.988;8.544;2023-05-15T23:55:38;17.13;;;9.30;;
